sensor_id;sensor_type;location;lat;lon;timestamp;temperature;humidity
21811;DHT22;11067;48.788;9.208;2023-02-28T00:01:10;-0.90;99.90
21811;DHT22;11067;48.788;9.208;2023-02-28T00:03:36;-1.00;99.90
21811;DHT22;11067;48.788;9.208;2023-02-28T00:06:03;-1.00;99.90
21811;DHT22;11067;48.788;9.208;2023-02-28T00:08:29;-1.00;99.90
21811;DHT22;11067;48.788;9.208;2023-02-28T00:10:54;-1.00;99.90
21811;DHT22;11067;48.788;9.208;2023-02-28T00:13:20;-1.00;99.90
21811;DHT22;11067;48.788;9.208;2023-02-28T00:15:45;-0.90;99.90
21811;DHT22;11067;48.788;9.208;2023-02-28T00:18:11;-0.90;99.90
21811;DHT22;11067;48.788;9.208;2023-02-28T00:20:37;-1.00;99.90
21811;DHT22;11067;48.788;9.208;2023-02-28T00:23:03;-1.00;99.90
21811;DHT22;11067;48.788;9.208;2023-02-28T00:25:28;-1.00;99.90
21811;DHT22;11067;48.788;9.208;2023-02-28T00:27:54;-1.10;99.90
21811;DHT22;11067;48.788;9.208;2023-02-28T00:30:23;-1.10;99.90
21811;DHT22;11067;48.788;9.208;2023-02-28T00:32:49;-1.20;99.90
21811;DHT22;11067;48.788;9.208;2023-02-28T00:35:15;-1.20;99.90
21811;DHT22;11067;48.788;9.208;2023-02-28T00:37:41;-1.20;99.90
21811;DHT22;11067;48.788;9.208;2023-02-28T00:40:08;-1.20;99.90
21811;DHT22;11067;48.788;9.208;2023-02-28T00:42:34;-1.10;99.90
21811;DHT22;11067;48.788;9.208;2023-02-28T00:45:00;-1.10;99.90
21811;DHT22;11067;48.788;9.208;2023-02-28T00:47:26;-1.20;99.90
21811;DHT22;11067;48.788;9.208;2023-02-28T00:49:51;-1.20;99.90
21811;DHT22;11067;48.788;9.208;2023-02-28T00:52:17;-1.30;99.90
21811;DHT22;11067;48.788;9.208;2023-02-28T00:54:42;-1.30;99.90
21811;DHT22;11067;48.788;9.208;2023-02-28T00:57:08;-1.30;99.90
21811;DHT22;11067;48.788;9.208;2023-02-28T00:59:34;-1.30;99.90
21811;DHT22;11067;48.788;9.208;2023-02-28T01:01:59;-1.30;99.90
21811;DHT22;11067;48.788;9.208;2023-02-28T01:04:25;-1.30;99.90
21811;DHT22;11067;48.788;9.208;2023-02-28T01:06:51;-1.30;99.90
21811;DHT22;11067;48.788;9.208;2023-02-28T01:09:16;-1.30;99.90
21811;DHT22;11067;48.788;9.208;2023-02-28T01:11:42;-1.30;99.90
21811;DHT22;11067;48.788;9.208;2023-02-28T01:14:12;-1.40;99.90
21811;DHT22;11067;48.788;9.208;2023-02-28T01:16:38;-1.30;99.90
21811;DHT22;11067;48.788;9.208;2023-02-28T01:19:03;-1.40;99.90
21811;DHT22;11067;48.788;9.208;2023-02-28T01:21:29;-1.40;99.90
21811;DHT22;11067;48.788;9.208;2023-02-28T01:23:56;-1.40;99.90
21811;DHT22;11067;48.788;9.208;2023-02-28T01:26:23;-1.40;99.90
21811;DHT22;11067;48.788;9.208;2023-02-28T01:28:49;-1.50;99.90
21811;DHT22;11067;48.788;9.208;2023-02-28T01:31:16;-1.50;99.90
21811;DHT22;11067;48.788;9.208;2023-02-28T01:33:42;-1.50;99.90
21811;DHT22;11067;48.788;9.208;2023-02-28T01:36:16;-1.50;99.90
21811;DHT22;11067;48.788;9.208;2023-02-28T01:38:42;-1.50;99.90
21811;DHT22;11067;48.788;9.208;2023-02-28T01:41:23;-1.50;99.90
21811;DHT22;11067;48.788;9.208;2023-02-28T01:46:15;-1.50;99.90
21811;DHT22;11067;48.788;9.208;2023-02-28T01:51:16;-1.60;99.90
21811;DHT22;11067;48.788;9.208;2023-02-28T01:53:53;-1.60;99.90
21811;DHT22;11067;48.788;9.208;2023-02-28T01:56:24;-1.60;99.90
21811;DHT22;11067;48.788;9.208;2023-02-28T01:58:51;-1.70;99.90
21811;DHT22;11067;48.788;9.208;2023-02-28T02:01:18;-1.60;99.90
21811;DHT22;11067;48.788;9.208;2023-02-28T02:03:51;-1.70;99.90
21811;DHT22;11067;48.788;9.208;2023-02-28T02:06:24;-1.60;99.90
21811;DHT22;11067;48.788;9.208;2023-02-28T02:08:50;-1.60;99.90
21811;DHT22;11067;48.788;9.208;2023-02-28T02:11:19;-1.70;99.90
21811;DHT22;11067;48.788;9.208;2023-02-28T02:14:08;-1.70;99.90
21811;DHT22;11067;48.788;9.208;2023-02-28T02:19:32;-1.50;99.90
21811;DHT22;11067;48.788;9.208;2023-02-28T02:25:13;-1.60;99.90
21811;DHT22;11067;48.788;9.208;2023-02-28T02:31:06;-1.60;99.90
21811;DHT22;11067;48.788;9.208;2023-02-28T02:33:45;-1.60;99.90
21811;DHT22;11067;48.788;9.208;2023-02-28T02:36:27;-1.60;99.90
21811;DHT22;11067;48.788;9.208;2023-02-28T02:41:49;-1.50;99.90
21811;DHT22;11067;48.788;9.208;2023-02-28T02:44:40;-1.50;99.90
21811;DHT22;11067;48.788;9.208;2023-02-28T02:47:13;-1.40;99.90
21811;DHT22;11067;48.788;9.208;2023-02-28T02:49:43;-1.30;99.90
21811;DHT22;11067;48.788;9.208;2023-02-28T02:52:12;-1.30;99.90
21811;DHT22;11067;48.788;9.208;2023-02-28T02:54:45;-1.20;99.90
21811;DHT22;11067;48.788;9.208;2023-02-28T02:57:17;-1.30;99.90
21811;DHT22;11067;48.788;9.208;2023-02-28T02:59:45;-1.30;99.90
21811;DHT22;11067;48.788;9.208;2023-02-28T03:02:12;-1.30;99.90
21811;DHT22;11067;48.788;9.208;2023-02-28T03:04:43;-1.30;99.90
21811;DHT22;11067;48.788;9.208;2023-02-28T03:07:10;-1.30;99.90
21811;DHT22;11067;48.788;9.208;2023-02-28T03:09:36;-1.20;99.90
21811;DHT22;11067;48.788;9.208;2023-02-28T03:12:02;-1.20;99.90
21811;DHT22;11067;48.788;9.208;2023-02-28T03:20:04;-1.10;99.90
21811;DHT22;11067;48.788;9.208;2023-02-28T03:30:55;-1.10;99.90
21811;DHT22;11067;48.788;9.208;2023-02-28T03:33:28;-1.10;99.90
21811;DHT22;11067;48.788;9.208;2023-02-28T03:36:18;-1.00;99.90
21811;DHT22;11067;48.788;9.208;2023-02-28T03:41:21;-1.00;99.90
21811;DHT22;11067;48.788;9.208;2023-02-28T03:43:55;-1.00;99.90
21811;DHT22;11067;48.788;9.208;2023-02-28T03:46:25;-0.90;99.90
21811;DHT22;11067;48.788;9.208;2023-02-28T03:49:02;-0.90;99.90
21811;DHT22;11067;48.788;9.208;2023-02-28T03:51:29;-0.90;99.90
21811;DHT22;11067;48.788;9.208;2023-02-28T03:54:02;-0.90;99.90
21811;DHT22;11067;48.788;9.208;2023-02-28T03:56:34;-1.00;99.90
21811;DHT22;11067;48.788;9.208;2023-02-28T04:01:48;-1.00;99.90
21811;DHT22;11067;48.788;9.208;2023-02-28T04:04:14;-0.90;99.90
21811;DHT22;11067;48.788;9.208;2023-02-28T04:06:41;-0.90;99.90
21811;DHT22;11067;48.788;9.208;2023-02-28T04:09:08;-0.80;99.90
21811;DHT22;11067;48.788;9.208;2023-02-28T04:11:36;-0.90;99.90
21811;DHT22;11067;48.788;9.208;2023-02-28T04:14:03;-0.90;99.90
21811;DHT22;11067;48.788;9.208;2023-02-28T04:16:31;-0.80;99.90
21811;DHT22;11067;48.788;9.208;2023-02-28T04:18:56;-0.80;99.90
21811;DHT22;11067;48.788;9.208;2023-02-28T04:21:31;-0.70;99.90
21811;DHT22;11067;48.788;9.208;2023-02-28T04:23:57;-0.70;99.90
21811;DHT22;11067;48.788;9.208;2023-02-28T04:26:35;-0.70;99.90
21811;DHT22;11067;48.788;9.208;2023-02-28T04:29:02;-0.80;99.90
21811;DHT22;11067;48.788;9.208;2023-02-28T04:31:28;-0.80;99.90
21811;DHT22;11067;48.788;9.208;2023-02-28T04:33:53;-0.80;99.90
21811;DHT22;11067;48.788;9.208;2023-02-28T04:36:19;-0.70;99.90
21811;DHT22;11067;48.788;9.208;2023-02-28T04:38:45;-0.60;99.90
21811;DHT22;11067;48.788;9.208;2023-02-28T04:41:12;-0.60;99.90
21811;DHT22;11067;48.788;9.208;2023-02-28T04:43:38;-0.70;99.90
21811;DHT22;11067;48.788;9.208;2023-02-28T04:46:04;-0.70;99.90
21811;DHT22;11067;48.788;9.208;2023-02-28T04:48:32;-0.60;99.90
21811;DHT22;11067;48.788;9.208;2023-02-28T04:51:03;-0.60;99.90
21811;DHT22;11067;48.788;9.208;2023-02-28T04:53:29;-0.60;99.90
21811;DHT22;11067;48.788;9.208;2023-02-28T04:55:56;-0.60;99.90
21811;DHT22;11067;48.788;9.208;2023-02-28T04:58:21;-0.60;99.90
21811;DHT22;11067;48.788;9.208;2023-02-28T05:00:51;-0.60;99.90
21811;DHT22;11067;48.788;9.208;2023-02-28T05:03:17;-0.60;99.90
21811;DHT22;11067;48.788;9.208;2023-02-28T05:05:42;-0.70;99.90
21811;DHT22;11067;48.788;9.208;2023-02-28T05:08:08;-0.70;99.90
21811;DHT22;11067;48.788;9.208;2023-02-28T05:10:35;-0.70;99.90
21811;DHT22;11067;48.788;9.208;2023-02-28T05:13:01;-0.70;99.90
21811;DHT22;11067;48.788;9.208;2023-02-28T05:15:26;-0.60;99.90
21811;DHT22;11067;48.788;9.208;2023-02-28T05:17:52;-0.50;99.90
21811;DHT22;11067;48.788;9.208;2023-02-28T05:20:17;-0.50;99.90
21811;DHT22;11067;48.788;9.208;2023-02-28T05:22:43;-0.50;99.90
21811;DHT22;11067;48.788;9.208;2023-02-28T05:25:13;-0.50;99.90
21811;DHT22;11067;48.788;9.208;2023-02-28T05:27:41;-0.50;99.90
21811;DHT22;11067;48.788;9.208;2023-02-28T05:30:07;-0.50;99.90
21811;DHT22;11067;48.788;9.208;2023-02-28T05:32:39;-0.50;99.90
21811;DHT22;11067;48.788;9.208;2023-02-28T05:35:09;-0.50;99.90
21811;DHT22;11067;48.788;9.208;2023-02-28T05:37:35;-0.50;99.90
21811;DHT22;11067;48.788;9.208;2023-02-28T05:40:01;-0.50;99.90
21811;DHT22;11067;48.788;9.208;2023-02-28T05:42:26;-0.50;99.90
21811;DHT22;11067;48.788;9.208;2023-02-28T05:44:52;-0.50;99.90
21811;DHT22;11067;48.788;9.208;2023-02-28T05:47:17;-0.50;99.90
21811;DHT22;11067;48.788;9.208;2023-02-28T05:49:43;-0.50;99.90
21811;DHT22;11067;48.788;9.208;2023-02-28T05:52:08;-0.50;99.90
21811;DHT22;11067;48.788;9.208;2023-02-28T05:54:34;-0.60;99.90
21811;DHT22;11067;48.788;9.208;2023-02-28T05:57:00;-0.50;99.90
21811;DHT22;11067;48.788;9.208;2023-02-28T05:59:25;-0.40;99.90
21811;DHT22;11067;48.788;9.208;2023-02-28T06:01:51;-0.50;99.90
21811;DHT22;11067;48.788;9.208;2023-02-28T06:04:19;-0.50;99.90
21811;DHT22;11067;48.788;9.208;2023-02-28T06:06:49;-0.50;99.90
21811;DHT22;11067;48.788;9.208;2023-02-28T06:09:14;-0.50;99.90
21811;DHT22;11067;48.788;9.208;2023-02-28T06:11:41;-0.50;99.90
21811;DHT22;11067;48.788;9.208;2023-02-28T06:14:07;-0.50;99.90
21811;DHT22;11067;48.788;9.208;2023-02-28T06:16:34;-0.50;99.90
21811;DHT22;11067;48.788;9.208;2023-02-28T06:19:03;-0.50;99.90
21811;DHT22;11067;48.788;9.208;2023-02-28T06:21:29;-0.50;99.90
21811;DHT22;11067;48.788;9.208;2023-02-28T06:23:55;-0.50;99.90
21811;DHT22;11067;48.788;9.208;2023-02-28T06:26:21;-0.40;99.90
21811;DHT22;11067;48.788;9.208;2023-02-28T06:28:47;-0.50;99.90
21811;DHT22;11067;48.788;9.208;2023-02-28T06:31:16;-0.40;99.90
21811;DHT22;11067;48.788;9.208;2023-02-28T06:33:43;-0.40;99.90
21811;DHT22;11067;48.788;9.208;2023-02-28T06:36:09;-0.40;99.90
21811;DHT22;11067;48.788;9.208;2023-02-28T06:38:36;-0.40;99.90
21811;DHT22;11067;48.788;9.208;2023-02-28T06:41:03;-0.40;99.90
21811;DHT22;11067;48.788;9.208;2023-02-28T06:43:31;-0.40;99.90
21811;DHT22;11067;48.788;9.208;2023-02-28T06:46:01;-0.40;99.90
21811;DHT22;11067;48.788;9.208;2023-02-28T06:48:27;-0.30;99.90
21811;DHT22;11067;48.788;9.208;2023-02-28T06:51:08;-0.40;99.90
21811;DHT22;11067;48.788;9.208;2023-02-28T06:53:35;-0.30;99.90
21811;DHT22;11067;48.788;9.208;2023-02-28T06:56:06;-0.30;99.90
21811;DHT22;11067;48.788;9.208;2023-02-28T06:58:32;-0.10;99.90
21811;DHT22;11067;48.788;9.208;2023-02-28T07:00:58;-0.10;99.90
21811;DHT22;11067;48.788;9.208;2023-02-28T07:03:23;-0.20;99.90
21811;DHT22;11067;48.788;9.208;2023-02-28T07:05:49;-0.20;99.90
21811;DHT22;11067;48.788;9.208;2023-02-28T07:08:14;-0.20;99.90
21811;DHT22;11067;48.788;9.208;2023-02-28T07:10:40;-0.10;99.90
21811;DHT22;11067;48.788;9.208;2023-02-28T07:13:07;0.00;99.90
21811;DHT22;11067;48.788;9.208;2023-02-28T07:15:34;-0.10;99.90
21811;DHT22;11067;48.788;9.208;2023-02-28T07:17:59;0.10;99.90
21811;DHT22;11067;48.788;9.208;2023-02-28T07:20:25;-0.10;99.90
21811;DHT22;11067;48.788;9.208;2023-02-28T07:22:51;-0.10;99.90
21811;DHT22;11067;48.788;9.208;2023-02-28T07:25:25;-0.10;99.90
21811;DHT22;11067;48.788;9.208;2023-02-28T07:27:51;0.00;99.90
21811;DHT22;11067;48.788;9.208;2023-02-28T07:30:18;0.10;99.90
21811;DHT22;11067;48.788;9.208;2023-02-28T07:32:43;0.00;99.90
21811;DHT22;11067;48.788;9.208;2023-02-28T07:35:09;-0.10;99.90
21811;DHT22;11067;48.788;9.208;2023-02-28T07:37:34;0.10;99.90
21811;DHT22;11067;48.788;9.208;2023-02-28T07:40:04;0.10;99.90
21811;DHT22;11067;48.788;9.208;2023-02-28T07:42:32;0.00;99.90
21811;DHT22;11067;48.788;9.208;2023-02-28T07:44:58;0.10;99.90
21811;DHT22;11067;48.788;9.208;2023-02-28T07:47:24;0.10;99.90
21811;DHT22;11067;48.788;9.208;2023-02-28T07:49:50;0.10;99.90
21811;DHT22;11067;48.788;9.208;2023-02-28T07:52:15;0.10;99.90
21811;DHT22;11067;48.788;9.208;2023-02-28T07:54:41;0.10;99.90
21811;DHT22;11067;48.788;9.208;2023-02-28T07:57:06;0.10;99.90
21811;DHT22;11067;48.788;9.208;2023-02-28T07:59:32;0.10;99.90
21811;DHT22;11067;48.788;9.208;2023-02-28T08:01:58;0.10;99.90
21811;DHT22;11067;48.788;9.208;2023-02-28T08:04:24;0.20;99.90
21811;DHT22;11067;48.788;9.208;2023-02-28T08:06:50;0.20;99.90
21811;DHT22;11067;48.788;9.208;2023-02-28T08:09:18;0.20;99.90
21811;DHT22;11067;48.788;9.208;2023-02-28T08:11:43;0.30;99.90
21811;DHT22;11067;48.788;9.208;2023-02-28T08:14:09;0.20;99.90
21811;DHT22;11067;48.788;9.208;2023-02-28T08:16:35;0.20;99.90
21811;DHT22;11067;48.788;9.208;2023-02-28T08:19:00;0.20;99.90
21811;DHT22;11067;48.788;9.208;2023-02-28T08:21:26;0.20;99.90
21811;DHT22;11067;48.788;9.208;2023-02-28T08:23:51;0.20;99.90
21811;DHT22;11067;48.788;9.208;2023-02-28T08:26:18;0.20;99.90
21811;DHT22;11067;48.788;9.208;2023-02-28T08:28:44;0.30;99.90
21811;DHT22;11067;48.788;9.208;2023-02-28T08:31:11;0.40;99.90
21811;DHT22;11067;48.788;9.208;2023-02-28T08:33:39;0.40;99.90
21811;DHT22;11067;48.788;9.208;2023-02-28T08:36:05;0.30;99.90
21811;DHT22;11067;48.788;9.208;2023-02-28T08:38:31;0.40;99.90
21811;DHT22;11067;48.788;9.208;2023-02-28T08:41:02;0.30;99.90
21811;DHT22;11067;48.788;9.208;2023-02-28T08:43:28;0.30;99.90
21811;DHT22;11067;48.788;9.208;2023-02-28T08:45:57;0.40;99.90
21811;DHT22;11067;48.788;9.208;2023-02-28T08:48:24;0.50;99.90
21811;DHT22;11067;48.788;9.208;2023-02-28T08:51:00;0.40;99.90
21811;DHT22;11067;48.788;9.208;2023-02-28T08:53:26;0.40;99.90
21811;DHT22;11067;48.788;9.208;2023-02-28T08:56:05;0.40;99.90
21811;DHT22;11067;48.788;9.208;2023-02-28T08:58:31;0.30;99.90
21811;DHT22;11067;48.788;9.208;2023-02-28T09:00:56;0.40;99.90
21811;DHT22;11067;48.788;9.208;2023-02-28T09:03:23;0.40;99.90
21811;DHT22;11067;48.788;9.208;2023-02-28T09:08:20;0.50;99.90
21811;DHT22;11067;48.788;9.208;2023-02-28T09:10:46;0.40;99.90
21811;DHT22;11067;48.788;9.208;2023-02-28T09:13:12;0.50;99.90
21811;DHT22;11067;48.788;9.208;2023-02-28T09:37:32;0.60;99.90
21811;DHT22;11067;48.788;9.208;2023-02-28T09:49:54;0.80;99.90
21811;DHT22;11067;48.788;9.208;2023-02-28T09:52:28;1.10;99.90
21811;DHT22;11067;48.788;9.208;2023-02-28T09:54:55;1.00;99.90
21811;DHT22;11067;48.788;9.208;2023-02-28T09:57:40;1.10;99.90
21811;DHT22;11067;48.788;9.208;2023-02-28T10:05:50;1.20;99.90
21811;DHT22;11067;48.788;9.208;2023-02-28T10:08:47;1.30;99.90
21811;DHT22;11067;48.788;9.208;2023-02-28T10:11:16;1.40;99.90
21811;DHT22;11067;48.788;9.208;2023-02-28T10:13:53;1.50;99.90
21811;DHT22;11067;48.788;9.208;2023-02-28T10:16:58;1.60;99.90
21811;DHT22;11067;48.788;9.208;2023-02-28T10:22:19;1.60;99.90
21811;DHT22;11067;48.788;9.208;2023-02-28T10:24:48;1.60;99.90
21811;DHT22;11067;48.788;9.208;2023-02-28T10:27:18;1.70;99.90
21811;DHT22;11067;48.788;9.208;2023-02-28T10:29:50;1.60;99.90
21811;DHT22;11067;48.788;9.208;2023-02-28T12:02:18;4.00;99.90
21811;DHT22;11067;48.788;9.208;2023-02-28T12:07:38;4.00;99.90
21811;DHT22;11067;48.788;9.208;2023-02-28T12:10:24;4.20;99.90
21811;DHT22;11067;48.788;9.208;2023-02-28T12:13:07;4.40;99.90
21811;DHT22;11067;48.788;9.208;2023-02-28T12:26:42;4.40;99.90
21811;DHT22;11067;48.788;9.208;2023-02-28T12:29:17;4.30;99.90
21811;DHT22;11067;48.788;9.208;2023-02-28T12:31:59;4.30;99.90
21811;DHT22;11067;48.788;9.208;2023-02-28T12:34:33;4.50;99.90
21811;DHT22;11067;48.788;9.208;2023-02-28T12:39:32;4.80;99.90
21811;DHT22;11067;48.788;9.208;2023-02-28T12:44:35;4.70;99.90
21811;DHT22;11067;48.788;9.208;2023-02-28T12:47:05;4.50;99.90
21811;DHT22;11067;48.788;9.208;2023-02-28T12:49:42;4.60;99.90
21811;DHT22;11067;48.788;9.208;2023-02-28T12:54:52;4.70;99.90
21811;DHT22;11067;48.788;9.208;2023-02-28T13:00:15;4.70;99.90
21811;DHT22;11067;48.788;9.208;2023-02-28T13:05:56;4.80;99.90
21811;DHT22;11067;48.788;9.208;2023-02-28T13:08:52;4.90;99.90
21811;DHT22;11067;48.788;9.208;2023-02-28T13:11:26;5.00;99.90
21811;DHT22;11067;48.788;9.208;2023-02-28T13:14:03;5.20;99.90
21811;DHT22;11067;48.788;9.208;2023-02-28T13:17:33;5.40;99.90
21811;DHT22;11067;48.788;9.208;2023-02-28T13:19:41;5.30;99.90
21811;DHT22;11067;48.788;9.208;2023-02-28T13:22:17;5.10;99.90
21811;DHT22;11067;48.788;9.208;2023-02-28T13:34:40;5.30;99.90
21811;DHT22;11067;48.788;9.208;2023-02-28T13:39:51;5.20;99.90
21811;DHT22;11067;48.788;9.208;2023-02-28T13:47:51;5.40;99.90
21811;DHT22;11067;48.788;9.208;2023-02-28T13:58:46;5.30;99.90
21811;DHT22;11067;48.788;9.208;2023-02-28T14:01:41;5.40;99.90
21811;DHT22;11067;48.788;9.208;2023-02-28T14:06:50;5.40;99.90
21811;DHT22;11067;48.788;9.208;2023-02-28T14:09:40;5.40;99.90
21811;DHT22;11067;48.788;9.208;2023-02-28T14:18:12;5.50;99.90
21811;DHT22;11067;48.788;9.208;2023-02-28T14:20:40;5.60;99.90
21811;DHT22;11067;48.788;9.208;2023-02-28T14:23:16;5.80;99.90
21811;DHT22;11067;48.788;9.208;2023-02-28T14:26:13;5.90;99.90
21811;DHT22;11067;48.788;9.208;2023-02-28T14:28:50;6.00;99.90
21811;DHT22;11067;48.788;9.208;2023-02-28T14:31:29;5.70;99.90
21811;DHT22;11067;48.788;9.208;2023-02-28T14:34:31;5.70;99.90
21811;DHT22;11067;48.788;9.208;2023-02-28T14:37:01;5.90;99.90
21811;DHT22;11067;48.788;9.208;2023-02-28T14:39:28;6.00;99.90
21811;DHT22;11067;48.788;9.208;2023-02-28T14:41:59;5.90;99.90
21811;DHT22;11067;48.788;9.208;2023-02-28T14:44:29;5.80;99.90
21811;DHT22;11067;48.788;9.208;2023-02-28T14:46:58;5.70;99.90
21811;DHT22;11067;48.788;9.208;2023-02-28T14:49:27;5.70;99.90
21811;DHT22;11067;48.788;9.208;2023-02-28T14:52:15;5.80;99.90
21811;DHT22;11067;48.788;9.208;2023-02-28T14:54:43;5.80;99.90
21811;DHT22;11067;48.788;9.208;2023-02-28T14:57:27;5.80;99.90
21811;DHT22;11067;48.788;9.208;2023-02-28T15:02:33;5.80;99.90
21811;DHT22;11067;48.788;9.208;2023-02-28T15:07:35;5.80;99.90
21811;DHT22;11067;48.788;9.208;2023-02-28T15:10:22;5.90;99.90
21811;DHT22;11067;48.788;9.208;2023-02-28T15:13:07;5.80;99.90
21811;DHT22;11067;48.788;9.208;2023-02-28T15:15:58;5.90;99.90
21811;DHT22;11067;48.788;9.208;2023-02-28T15:18:31;5.90;99.90
21811;DHT22;11067;48.788;9.208;2023-02-28T15:23:54;6.00;99.90
21811;DHT22;11067;48.788;9.208;2023-02-28T15:26:23;6.00;99.90
21811;DHT22;11067;48.788;9.208;2023-02-28T15:28:54;6.00;99.90
21811;DHT22;11067;48.788;9.208;2023-02-28T15:31:33;5.90;99.90
21811;DHT22;11067;48.788;9.208;2023-02-28T15:34:05;5.70;99.90
21811;DHT22;11067;48.788;9.208;2023-02-28T15:36:32;5.60;99.90
21811;DHT22;11067;48.788;9.208;2023-02-28T15:39:00;5.70;99.90
21811;DHT22;11067;48.788;9.208;2023-02-28T15:41:28;5.70;99.90
21811;DHT22;11067;48.788;9.208;2023-02-28T15:44:13;5.60;99.90
21811;DHT22;11067;48.788;9.208;2023-02-28T15:46:53;5.60;99.90
21811;DHT22;11067;48.788;9.208;2023-02-28T15:49:21;5.60;99.90
21811;DHT22;11067;48.788;9.208;2023-02-28T15:51:49;5.50;99.90
21811;DHT22;11067;48.788;9.208;2023-02-28T15:54:22;5.50;99.90
21811;DHT22;11067;48.788;9.208;2023-02-28T15:56:51;5.40;99.90
21811;DHT22;11067;48.788;9.208;2023-02-28T15:59:24;5.40;99.90
21811;DHT22;11067;48.788;9.208;2023-02-28T16:02:19;5.30;99.90
21811;DHT22;11067;48.788;9.208;2023-02-28T16:07:43;5.30;99.90
21811;DHT22;11067;48.788;9.208;2023-02-28T16:10:11;5.30;99.90
21811;DHT22;11067;48.788;9.208;2023-02-28T16:12:38;5.20;99.90
21811;DHT22;11067;48.788;9.208;2023-02-28T16:15:19;5.20;99.90
21811;DHT22;11067;48.788;9.208;2023-02-28T16:17:45;5.10;99.90
21811;DHT22;11067;48.788;9.208;2023-02-28T16:22:39;5.20;99.90
21811;DHT22;11067;48.788;9.208;2023-02-28T16:25:35;5.20;99.90
21811;DHT22;11067;48.788;9.208;2023-02-28T16:28:08;5.10;99.90
21811;DHT22;11067;48.788;9.208;2023-02-28T16:30:37;5.10;99.90
21811;DHT22;11067;48.788;9.208;2023-02-28T16:33:03;5.00;99.90
21811;DHT22;11067;48.788;9.208;2023-02-28T16:35:28;4.90;99.90
21811;DHT22;11067;48.788;9.208;2023-02-28T16:37:54;4.90;99.90
21811;DHT22;11067;48.788;9.208;2023-02-28T16:40:22;4.90;99.90
21811;DHT22;11067;48.788;9.208;2023-02-28T16:42:55;4.90;99.90
21811;DHT22;11067;48.788;9.208;2023-02-28T16:45:25;4.80;99.90
21811;DHT22;11067;48.788;9.208;2023-02-28T16:47:51;4.80;99.90
21811;DHT22;11067;48.788;9.208;2023-02-28T16:50:19;4.80;99.90
21811;DHT22;11067;48.788;9.208;2023-02-28T16:52:45;4.70;99.90
21811;DHT22;11067;48.788;9.208;2023-02-28T16:55:11;4.80;99.90
21811;DHT22;11067;48.788;9.208;2023-02-28T16:57:37;4.70;99.90
21811;DHT22;11067;48.788;9.208;2023-02-28T17:00:05;4.70;99.90
21811;DHT22;11067;48.788;9.208;2023-02-28T17:02:33;4.60;99.90
21811;DHT22;11067;48.788;9.208;2023-02-28T17:04:59;4.50;99.90
21811;DHT22;11067;48.788;9.208;2023-02-28T17:07:24;4.50;99.90
21811;DHT22;11067;48.788;9.208;2023-02-28T17:09:50;4.50;99.90
21811;DHT22;11067;48.788;9.208;2023-02-28T17:12:15;4.40;99.90
21811;DHT22;11067;48.788;9.208;2023-02-28T17:14:41;4.30;99.90
21811;DHT22;11067;48.788;9.208;2023-02-28T17:17:07;4.30;99.90
21811;DHT22;11067;48.788;9.208;2023-02-28T17:19:33;4.20;99.90
21811;DHT22;11067;48.788;9.208;2023-02-28T17:22:01;4.20;99.90
21811;DHT22;11067;48.788;9.208;2023-02-28T17:24:28;4.30;99.90
21811;DHT22;11067;48.788;9.208;2023-02-28T17:26:53;4.20;99.90
21811;DHT22;11067;48.788;9.208;2023-02-28T17:29:21;4.10;99.90
21811;DHT22;11067;48.788;9.208;2023-02-28T17:31:47;4.10;99.90
21811;DHT22;11067;48.788;9.208;2023-02-28T17:34:13;4.10;99.90
21811;DHT22;11067;48.788;9.208;2023-02-28T17:36:44;4.10;99.90
21811;DHT22;11067;48.788;9.208;2023-02-28T17:39:11;4.00;99.90
21811;DHT22;11067;48.788;9.208;2023-02-28T17:41:40;4.00;99.90
21811;DHT22;11067;48.788;9.208;2023-02-28T17:44:06;4.00;99.90
21811;DHT22;11067;48.788;9.208;2023-02-28T17:46:31;3.90;99.90
21811;DHT22;11067;48.788;9.208;2023-02-28T17:48:57;3.90;99.90
21811;DHT22;11067;48.788;9.208;2023-02-28T17:51:23;3.90;99.90
21811;DHT22;11067;48.788;9.208;2023-02-28T17:53:49;3.80;99.90
21811;DHT22;11067;48.788;9.208;2023-02-28T17:56:17;3.80;99.90
21811;DHT22;11067;48.788;9.208;2023-02-28T17:58:43;3.70;99.90
21811;DHT22;11067;48.788;9.208;2023-02-28T18:01:09;3.60;99.90
21811;DHT22;11067;48.788;9.208;2023-02-28T18:03:34;3.50;99.90
21811;DHT22;11067;48.788;9.208;2023-02-28T18:06:00;3.50;99.90
21811;DHT22;11067;48.788;9.208;2023-02-28T18:08:27;3.40;99.90
21811;DHT22;11067;48.788;9.208;2023-02-28T18:10:52;3.50;99.90
21811;DHT22;11067;48.788;9.208;2023-02-28T18:13:18;3.40;99.90
21811;DHT22;11067;48.788;9.208;2023-02-28T18:15:44;3.30;99.90
21811;DHT22;11067;48.788;9.208;2023-02-28T18:18:09;3.30;99.90
21811;DHT22;11067;48.788;9.208;2023-02-28T18:20:35;3.30;99.90
21811;DHT22;11067;48.788;9.208;2023-02-28T18:23:01;3.20;99.90
21811;DHT22;11067;48.788;9.208;2023-02-28T18:25:27;3.20;99.90
21811;DHT22;11067;48.788;9.208;2023-02-28T18:27:52;3.10;99.90
21811;DHT22;11067;48.788;9.208;2023-02-28T18:30:20;3.10;99.90
21811;DHT22;11067;48.788;9.208;2023-02-28T18:32:45;3.00;99.90
21811;DHT22;11067;48.788;9.208;2023-02-28T18:35:11;3.00;99.90
21811;DHT22;11067;48.788;9.208;2023-02-28T18:37:37;2.90;99.90
21811;DHT22;11067;48.788;9.208;2023-02-28T18:40:03;2.90;99.90
21811;DHT22;11067;48.788;9.208;2023-02-28T18:42:29;2.80;99.90
21811;DHT22;11067;48.788;9.208;2023-02-28T18:44:54;2.80;99.90
21811;DHT22;11067;48.788;9.208;2023-02-28T18:47:20;2.80;99.90
21811;DHT22;11067;48.788;9.208;2023-02-28T18:49:45;2.70;99.90
21811;DHT22;11067;48.788;9.208;2023-02-28T18:52:11;2.70;99.90
21811;DHT22;11067;48.788;9.208;2023-02-28T18:54:37;2.70;99.90
21811;DHT22;11067;48.788;9.208;2023-02-28T18:57:03;2.60;99.90
21811;DHT22;11067;48.788;9.208;2023-02-28T18:59:28;2.70;99.90
21811;DHT22;11067;48.788;9.208;2023-02-28T19:01:54;2.60;99.90
21811;DHT22;11067;48.788;9.208;2023-02-28T19:04:19;2.50;99.90
21811;DHT22;11067;48.788;9.208;2023-02-28T19:06:45;2.40;99.90
21811;DHT22;11067;48.788;9.208;2023-02-28T19:09:10;2.50;99.90
21811;DHT22;11067;48.788;9.208;2023-02-28T19:11:36;2.50;99.90
21811;DHT22;11067;48.788;9.208;2023-02-28T19:14:02;2.50;99.90
21811;DHT22;11067;48.788;9.208;2023-02-28T19:16:27;2.40;99.90
21811;DHT22;11067;48.788;9.208;2023-02-28T19:18:53;2.40;99.90
21811;DHT22;11067;48.788;9.208;2023-02-28T19:21:20;2.30;99.90
21811;DHT22;11067;48.788;9.208;2023-02-28T19:23:47;2.20;99.90
21811;DHT22;11067;48.788;9.208;2023-02-28T19:26:19;2.10;99.90
21811;DHT22;11067;48.788;9.208;2023-02-28T19:28:45;2.10;99.90
21811;DHT22;11067;48.788;9.208;2023-02-28T19:31:15;2.00;99.90
21811;DHT22;11067;48.788;9.208;2023-02-28T19:33:44;2.00;99.90
21811;DHT22;11067;48.788;9.208;2023-02-28T19:36:11;2.10;99.90
21811;DHT22;11067;48.788;9.208;2023-02-28T19:38:37;2.00;99.90
21811;DHT22;11067;48.788;9.208;2023-02-28T19:41:06;2.00;99.90
21811;DHT22;11067;48.788;9.208;2023-02-28T19:43:32;1.90;99.90
21811;DHT22;11067;48.788;9.208;2023-02-28T19:45:58;1.90;99.90
21811;DHT22;11067;48.788;9.208;2023-02-28T19:48:24;1.90;99.90
21811;DHT22;11067;48.788;9.208;2023-02-28T19:50:56;1.80;99.90
21811;DHT22;11067;48.788;9.208;2023-02-28T19:53:22;1.80;99.90
21811;DHT22;11067;48.788;9.208;2023-02-28T19:55:49;1.70;99.90
21811;DHT22;11067;48.788;9.208;2023-02-28T19:58:16;1.80;99.90